createdAt,value
2023-03-02T00:01:18.914Z,16.45
2023-03-02T00:03:56.413Z,16.95
2023-03-02T00:06:31.291Z,13.05
2023-03-02T00:09:10.081Z,16.92
2023-03-02T00:11:49.258Z,16.23
2023-03-02T00:14:23.637Z,17.85
2023-03-02T00:16:57.586Z,19.42
2023-03-02T00:19:34.828Z,21.20
2023-03-02T00:22:32.753Z,21.02
2023-03-02T00:25:10.494Z,20.17
2023-03-02T00:27:51.225Z,21.33
2023-03-02T00:30:28.846Z,22.20
2023-03-02T00:33:06.827Z,20.15
2023-03-02T00:35:47.505Z,16.95
2023-03-02T00:38:37.371Z,18.27
2023-03-02T00:41:16.993Z,16.13
2023-03-02T00:43:53.249Z,16.05
2023-03-02T00:46:27.242Z,14.88
2023-03-02T00:49:01.707Z,16.65
2023-03-02T00:51:37.504Z,16.17
2023-03-02T00:54:14.796Z,15.77
2023-03-02T00:59:41.937Z,12.60
2023-03-02T01:02:43.428Z,14.85
2023-03-02T01:05:21.336Z,12.98
2023-03-02T01:08:01.470Z,14.65
2023-03-02T01:10:42.635Z,14.30
2023-03-02T01:13:30.296Z,12.60
2023-03-02T01:16:49.738Z,12.40
2023-03-02T01:19:31.213Z,12.25
2023-03-02T01:22:27.603Z,15.38
2023-03-02T01:25:04.163Z,10.60
2023-03-02T01:28:04.028Z,11.02
2023-03-02T01:30:40.192Z,10.40
2023-03-02T01:33:18.651Z,12.40
2023-03-02T01:36:06.648Z,10.93
2023-03-02T01:38:58.057Z,9.85
2023-03-02T01:41:49.897Z,9.88
2023-03-02T01:44:50.568Z,10.55
2023-03-02T01:47:30.086Z,10.50
2023-03-02T01:50:27.911Z,10.18
2023-03-02T01:53:21.037Z,10.63
2023-03-02T01:56:10.601Z,10.85
2023-03-02T01:58:53.112Z,11.57
2023-03-02T02:01:31.298Z,11.35
2023-03-02T02:04:13.183Z,12.38
2023-03-02T02:07:09.989Z,11.40
2023-03-02T02:10:13.611Z,11.27
2023-03-02T02:13:03.777Z,10.32
2023-03-02T02:19:08.164Z,10.82
2023-03-02T02:22:01.061Z,12.27
2023-03-02T02:25:30.533Z,11.50
2023-03-02T02:28:04.259Z,9.32
2023-03-02T02:30:33.632Z,10.18
2023-03-02T02:33:03.850Z,10.25
2023-03-02T02:35:38.746Z,13.45
2023-03-02T02:38:11.890Z,10.75
2023-03-02T02:40:47.635Z,10.55
2023-03-02T02:43:23.450Z,9.57
2023-03-02T02:45:56.800Z,13.52
2023-03-02T02:48:31.248Z,11.63
2023-03-02T02:51:03.350Z,11.30
2023-03-02T02:53:43.161Z,12.88
2023-03-02T02:56:13.652Z,11.25
2023-03-02T02:58:48.678Z,12.18
2023-03-02T03:01:22.898Z,11.52
2023-03-02T03:03:54.490Z,11.57
2023-03-02T03:06:28.889Z,12.40
2023-03-02T03:09:02.511Z,12.90
2023-03-02T03:11:46.313Z,11.35
2023-03-02T03:14:19.705Z,12.85
2023-03-02T03:16:52.950Z,11.48
2023-03-02T03:19:25.111Z,12.13
2023-03-02T03:21:56.741Z,11.93
2023-03-02T03:24:28.922Z,11.70
2023-03-02T03:26:59.779Z,12.32
2023-03-02T03:29:31.647Z,11.60
2023-03-02T03:32:04.270Z,11.57
2023-03-02T03:34:40.579Z,11.48
2023-03-02T03:37:17.352Z,14.05
2023-03-02T03:39:47.800Z,12.52
2023-03-02T03:42:18.830Z,11.50
2023-03-02T03:44:50.209Z,11.88
2023-03-02T03:47:19.962Z,11.18
2023-03-02T03:49:49.798Z,12.63
2023-03-02T03:52:30.856Z,12.27
2023-03-02T03:55:11.644Z,11.35
2023-03-02T03:57:41.062Z,12.38
2023-03-02T04:00:17.108Z,12.93
2023-03-02T04:02:56.048Z,12.23
2023-03-02T04:05:26.242Z,12.23
2023-03-02T04:08:02.293Z,12.38
2023-03-02T04:10:33.346Z,11.63
2023-03-02T04:13:03.827Z,14.15
2023-03-02T04:15:35.007Z,16.33
2023-03-02T04:18:04.689Z,14.65
2023-03-02T04:20:34.975Z,15.05
2023-03-02T04:23:04.383Z,14.82
2023-03-02T04:25:34.013Z,13.48
2023-03-02T04:29:01.137Z,13.82
2023-03-02T04:31:32.163Z,14.05
2023-03-02T04:34:04.218Z,14.23
2023-03-02T04:36:37.367Z,14.00
2023-03-02T04:39:09.460Z,16.45
2023-03-02T04:41:39.128Z,15.43
2023-03-02T04:44:08.523Z,15.60
2023-03-02T04:46:40.003Z,15.15
2023-03-02T04:49:09.562Z,16.73
2023-03-02T04:51:42.137Z,14.93
2023-03-02T04:54:17.960Z,15.70
2023-03-02T04:56:51.859Z,16.40
2023-03-02T04:59:26.178Z,15.65
2023-03-02T05:01:58.127Z,18.05
2023-03-02T05:04:29.137Z,17.98
2023-03-02T05:06:59.205Z,18.83
2023-03-02T05:09:31.217Z,18.00
2023-03-02T05:12:02.740Z,15.30
2023-03-02T05:14:35.365Z,16.83
2023-03-02T05:17:06.878Z,14.88
2023-03-02T05:19:36.753Z,15.65
2023-03-02T05:22:06.741Z,16.58
2023-03-02T05:24:37.501Z,16.02
2023-03-02T05:27:07.203Z,14.65
2023-03-02T05:29:37.132Z,17.75
2023-03-02T05:32:11.240Z,15.65
2023-03-02T05:34:43.969Z,14.55
2023-03-02T05:37:14.571Z,17.55
2023-03-02T05:39:47.687Z,15.73
2023-03-02T05:42:19.417Z,16.00
2023-03-02T05:44:52.739Z,17.67
2023-03-02T05:47:24.461Z,18.40
2023-03-02T05:49:54.562Z,18.98
2023-03-02T05:52:24.120Z,18.65
2023-03-02T05:54:58.092Z,19.40
2023-03-02T05:57:32.459Z,18.90
2023-03-02T06:00:02.464Z,15.35
2023-03-02T06:44:01.988Z,14.77
2023-03-02T06:46:31.781Z,19.58
2023-03-02T06:49:01.400Z,19.10
2023-03-02T06:51:30.870Z,17.35
2023-03-02T06:54:00.909Z,14.20
2023-03-02T07:01:11.278Z,16.15
2023-03-02T07:03:50.039Z,15.48
2023-03-02T07:06:23.670Z,18.17
2023-03-02T07:59:47.975Z,20.35
2023-03-02T08:02:49.797Z,16.90
2023-03-02T08:05:19.264Z,19.98
2023-03-02T08:07:49.364Z,20.27
2023-03-02T08:10:24.423Z,21.92
2023-03-02T08:12:53.740Z,17.88
2023-03-02T08:15:24.696Z,20.45
2023-03-02T08:17:56.865Z,19.92
2023-03-02T08:20:26.417Z,22.70
2023-03-02T08:22:55.906Z,22.17
2023-03-02T08:25:27.620Z,21.70
2023-03-02T08:27:57.763Z,20.85
2023-03-02T08:30:45.937Z,21.38
2023-03-02T08:33:31.594Z,21.10
2023-03-02T08:39:47.246Z,19.83
2023-03-02T08:42:16.552Z,18.95
2023-03-02T08:44:46.022Z,21.40
2023-03-02T08:47:20.375Z,19.65
2023-03-02T08:50:38.304Z,19.92
2023-03-02T09:02:44.407Z,19.05
2023-03-02T09:05:15.646Z,20.10
2023-03-02T09:07:50.252Z,18.58
2023-03-02T09:10:25.589Z,18.25
2023-03-02T09:12:55.332Z,17.27
2023-03-02T09:15:28.117Z,18.70
2023-03-02T09:18:05.038Z,18.75
2023-03-02T09:20:59.461Z,18.05
2023-03-02T09:24:33.705Z,15.82
2023-03-02T09:43:53.183Z,13.05
2023-03-02T09:47:02.399Z,14.35
2023-03-02T09:50:09.162Z,16.33
2023-03-02T09:59:32.621Z,15.88
2023-03-02T10:02:30.784Z,14.43
2023-03-02T10:08:59.347Z,15.93
2023-03-02T10:11:55.302Z,14.65
2023-03-02T10:15:11.443Z,15.93
2023-03-02T10:22:19.905Z,44.33
2023-03-02T10:24:58.623Z,14.63
2023-03-02T10:27:40.344Z,15.18
2023-03-02T10:30:21.058Z,14.68
2023-03-02T10:40:29.285Z,15.65
2023-03-02T10:42:59.436Z,13.95
2023-03-02T10:46:17.773Z,14.90
2023-03-02T10:49:08.657Z,13.77
2023-03-02T10:51:40.832Z,12.75
2023-03-02T11:19:03.663Z,21.40
2023-03-02T11:21:39.947Z,24.50
2023-03-02T11:24:14.284Z,18.27
2023-03-02T11:26:50.630Z,13.45
2023-03-02T11:29:32.620Z,15.00
2023-03-02T11:32:10.296Z,12.88
2023-03-02T11:34:48.192Z,12.52
2023-03-02T11:37:21.952Z,12.85
2023-03-02T11:40:15.675Z,13.85
2023-03-02T11:42:46.736Z,14.27
2023-03-02T11:45:27.831Z,13.65
2023-03-02T11:48:10.464Z,13.43
2023-03-02T11:50:54.063Z,16.13
2023-03-02T11:53:26.085Z,13.27
2023-03-02T11:55:55.529Z,12.98
2023-03-02T11:58:27.931Z,12.82
2023-03-02T12:00:58.405Z,13.60
2023-03-02T12:03:41.897Z,12.95
2023-03-02T12:06:40.046Z,13.68
2023-03-02T12:09:31.005Z,11.88
2023-03-02T12:12:33.989Z,11.55
2023-03-02T12:15:31.252Z,12.00
2023-03-02T12:18:03.508Z,12.10
2023-03-02T12:20:47.395Z,13.48
2023-03-02T12:23:33.847Z,11.70
2023-03-02T12:26:26.287Z,12.68
2023-03-02T12:29:04.942Z,13.05
2023-03-02T12:31:46.726Z,12.75
2023-03-02T12:34:35.312Z,12.20
2023-03-02T12:37:18.034Z,12.20
2023-03-02T12:40:35.393Z,10.88
2023-03-02T12:43:37.822Z,11.18
2023-03-02T12:50:01.854Z,11.55
2023-03-02T13:34:19.941Z,19.92
2023-03-02T13:36:49.341Z,21.73
2023-03-02T13:39:25.193Z,12.90
2023-03-02T13:41:58.821Z,15.32
2023-03-02T13:44:31.204Z,13.55
2023-03-02T13:47:01.092Z,13.77
2023-03-02T13:49:33.081Z,11.98
2023-03-02T13:52:08.050Z,14.35
2023-03-02T13:54:39.541Z,11.82
2023-03-02T13:57:17.035Z,13.50
2023-03-02T13:59:46.616Z,11.50
2023-03-02T14:02:24.438Z,12.02
2023-03-02T14:04:56.481Z,10.52
2023-03-02T14:07:26.108Z,12.10
2023-03-02T14:09:57.550Z,11.02
2023-03-02T14:12:34.606Z,11.18
2023-03-02T14:15:11.292Z,11.60
2023-03-02T14:17:41.220Z,10.00
2023-03-02T14:20:17.508Z,9.35
2023-03-02T14:22:51.328Z,11.75
2023-03-02T14:25:25.046Z,9.45
2023-03-02T14:28:31.813Z,9.45
2023-03-02T14:31:29.173Z,7.95
2023-03-02T14:34:11.576Z,9.43
2023-03-02T14:36:43.291Z,10.65
2023-03-02T14:39:23.272Z,9.95
2023-03-02T14:41:58.523Z,9.75
2023-03-02T14:44:35.358Z,11.60
2023-03-02T14:47:10.457Z,9.43
2023-03-02T14:49:41.176Z,9.38
2023-03-02T14:52:15.818Z,8.77
2023-03-02T14:54:56.478Z,8.07
2023-03-02T14:57:28.931Z,9.43
2023-03-02T15:00:00.781Z,10.15
2023-03-02T15:02:33.736Z,8.30
2023-03-02T15:05:03.400Z,9.02
2023-03-02T15:07:37.428Z,7.90
2023-03-02T15:10:08.524Z,8.43
2023-03-02T15:12:38.543Z,6.40
2023-03-02T15:15:58.536Z,6.80
2023-03-02T15:18:29.200Z,6.10
2023-03-02T15:20:58.760Z,6.32
2023-03-02T15:23:28.990Z,7.25
2023-03-02T15:56:14.270Z,7.90
2023-03-02T16:15:41.928Z,7.80
2023-03-02T16:18:16.182Z,9.18
2023-03-02T16:20:49.467Z,8.13
2023-03-02T16:23:18.796Z,7.57
2023-03-02T16:25:49.704Z,8.75
2023-03-02T16:28:20.112Z,7.32
2023-03-02T16:30:51.409Z,8.23
2023-03-02T16:33:20.693Z,8.25
2023-03-02T16:35:50.344Z,8.48
2023-03-02T16:38:19.431Z,8.52
2023-03-02T16:40:49.388Z,7.57
2023-03-02T16:43:18.737Z,8.45
2023-03-02T16:50:16.962Z,5.53
2023-03-02T16:52:46.531Z,7.50
2023-03-02T16:55:18.440Z,10.07
2023-03-02T16:57:48.006Z,9.25
2023-03-02T17:00:20.427Z,8.85
2023-03-02T17:02:50.084Z,8.07
2023-03-02T17:05:22.232Z,7.28
2023-03-02T17:07:51.770Z,11.88
2023-03-02T17:10:22.955Z,10.02
2023-03-02T17:12:52.052Z,11.60
2023-03-02T17:15:21.295Z,8.45
2023-03-02T17:17:50.502Z,9.48
2023-03-02T17:20:21.274Z,8.77
2023-03-02T17:22:50.684Z,7.88
2023-03-02T17:25:20.381Z,9.52
2023-03-02T17:27:50.292Z,7.85
2023-03-02T17:30:20.443Z,9.02
2023-03-02T17:32:49.700Z,8.38
2023-03-02T17:35:20.493Z,7.45
2023-03-02T17:37:49.847Z,8.30
2023-03-02T17:40:20.042Z,8.25
2023-03-02T17:43:05.714Z,8.27
2023-03-02T17:45:35.067Z,7.65
2023-03-02T17:48:04.457Z,7.72
2023-03-02T17:50:35.206Z,9.05
2023-03-02T17:53:04.497Z,6.88
2023-03-02T17:55:34.569Z,6.53
2023-03-02T17:58:03.749Z,6.45
2023-03-02T18:00:33.702Z,6.28
2023-03-02T18:03:02.960Z,5.30
2023-03-02T18:05:38.887Z,7.40
2023-03-02T18:08:08.537Z,5.97
2023-03-02T18:10:37.729Z,8.15
2023-03-02T18:13:06.907Z,7.10
2023-03-02T18:15:36.292Z,6.65
2023-03-02T18:18:05.794Z,8.48
2023-03-02T18:20:37.063Z,10.50
2023-03-02T18:23:06.347Z,9.27
2023-03-02T18:25:35.588Z,7.72
2023-03-02T18:28:04.770Z,9.05
2023-03-02T18:30:34.407Z,11.50
2023-03-02T18:33:03.636Z,8.00
2023-03-02T18:35:32.979Z,11.30
2023-03-02T18:38:03.686Z,10.10
2023-03-02T18:40:33.539Z,7.97
2023-03-02T18:43:02.722Z,8.35
2023-03-02T18:45:33.333Z,8.95
2023-03-02T18:48:02.833Z,9.75
2023-03-02T18:50:32.257Z,8.80
2023-03-02T18:53:02.862Z,8.73
2023-03-02T18:55:32.054Z,7.70
2023-03-02T18:58:01.526Z,9.35
2023-03-02T19:00:31.042Z,7.28
2023-03-02T19:03:00.263Z,10.07
2023-03-02T19:05:33.870Z,10.57
2023-03-02T19:08:07.661Z,9.75
2023-03-02T19:10:37.174Z,8.95
2023-03-02T19:13:09.334Z,9.65
2023-03-02T19:15:38.945Z,8.98
2023-03-02T19:18:08.149Z,8.85
2023-03-02T19:20:37.442Z,9.77
2023-03-02T19:23:07.977Z,9.38
2023-03-02T19:25:37.211Z,9.68
2023-03-02T19:28:06.760Z,8.32
2023-03-02T19:30:36.812Z,9.75
2023-03-02T19:33:07.523Z,8.40
2023-03-02T19:35:52.106Z,10.27
2023-03-02T19:38:23.988Z,12.35
2023-03-02T19:40:53.070Z,10.50
2023-03-02T19:43:22.139Z,10.90
2023-03-02T19:45:51.236Z,10.48
2023-03-02T19:48:20.704Z,9.90
2023-03-02T19:50:50.144Z,8.98
2023-03-02T19:53:19.308Z,11.68
2023-03-02T19:55:51.547Z,11.00
2023-03-02T19:58:21.315Z,10.70
2023-03-02T20:00:50.451Z,11.57
2023-03-02T20:03:19.467Z,12.35
2023-03-02T20:05:48.535Z,9.38
2023-03-02T20:08:18.078Z,10.93
2023-03-02T20:10:50.145Z,10.82
2023-03-02T20:13:19.599Z,10.48
2023-03-02T20:15:49.611Z,11.32
2023-03-02T20:18:21.270Z,11.27
2023-03-02T20:20:50.542Z,10.75
2023-03-02T20:23:20.070Z,9.45
2023-03-02T20:25:50.934Z,12.25
2023-03-02T20:28:23.045Z,12.20
2023-03-02T20:30:55.652Z,10.38
2023-03-02T20:33:27.236Z,9.35
2023-03-02T20:35:57.061Z,10.75
2023-03-02T20:38:30.347Z,11.57
2023-03-02T20:41:01.964Z,11.75
2023-03-02T20:43:31.301Z,12.27
2023-03-02T20:46:01.594Z,11.63
2023-03-02T20:48:30.923Z,9.90
2023-03-02T20:51:00.144Z,11.70
2023-03-02T20:53:30.136Z,11.88
2023-03-02T20:56:00.950Z,11.68
2023-03-02T20:58:30.247Z,13.70
2023-03-02T21:01:00.660Z,13.40
2023-03-02T21:03:29.797Z,12.68
2023-03-02T21:05:58.919Z,8.55
2023-03-02T21:08:28.251Z,10.90
2023-03-02T21:10:57.313Z,13.13
2023-03-02T21:13:28.017Z,12.60
2023-03-02T21:15:58.079Z,10.23
2023-03-02T21:18:27.472Z,10.65
2023-03-02T21:20:56.580Z,11.10
2023-03-02T21:23:25.825Z,12.73
2023-03-02T21:25:55.097Z,12.18
2023-03-02T21:28:24.463Z,11.55
2023-03-02T21:30:55.241Z,10.85
2023-03-02T21:33:24.397Z,12.57
2023-03-02T21:35:53.514Z,14.57
2023-03-02T21:38:22.611Z,14.32
2023-03-02T21:40:51.891Z,13.68
2023-03-02T21:43:21.071Z,13.35
2023-03-02T21:45:50.259Z,14.07
2023-03-02T21:48:22.955Z,13.15
2023-03-02T21:50:52.266Z,12.77
2023-03-02T21:53:21.603Z,12.90
2023-03-02T21:56:23.136Z,17.00
2023-03-02T21:58:54.000Z,15.95
2023-03-02T22:01:23.962Z,19.10
2023-03-02T22:03:54.713Z,19.02
2023-03-02T22:06:26.090Z,15.02
2023-03-02T22:09:05.227Z,13.32
2023-03-02T22:11:36.515Z,15.85
2023-03-02T22:14:12.258Z,14.18
2023-03-02T22:16:45.230Z,12.20
2023-03-02T22:19:26.758Z,13.50
2023-03-02T22:21:57.253Z,12.73
2023-03-02T22:24:55.396Z,14.50
2023-03-02T22:27:26.994Z,13.35
2023-03-02T22:29:59.261Z,15.70
2023-03-02T22:32:30.553Z,14.90
2023-03-02T22:35:04.125Z,13.10
2023-03-02T22:38:41.713Z,15.43
2023-03-02T22:41:16.558Z,12.75
2023-03-02T22:43:46.202Z,12.32
2023-03-02T22:46:18.755Z,13.98
2023-03-02T22:48:49.877Z,16.38
2023-03-02T22:51:21.766Z,11.98
2023-03-02T22:53:52.966Z,13.65
2023-03-02T22:56:30.787Z,15.73
2023-03-02T22:59:07.956Z,14.20
2023-03-02T23:06:04.014Z,12.25
2023-03-02T23:08:35.100Z,14.73
2023-03-02T23:11:04.324Z,16.15
2023-03-02T23:13:39.811Z,12.50
2023-03-02T23:16:19.238Z,14.13
2023-03-02T23:18:49.671Z,13.38
2023-03-02T23:21:24.765Z,12.10
2023-03-02T23:23:56.925Z,12.75
2023-03-02T23:26:26.045Z,12.10
2023-03-02T23:28:55.342Z,15.07
2023-03-02T23:31:24.575Z,13.98
2023-03-02T23:33:53.716Z,12.43
2023-03-02T23:36:23.182Z,14.13
2023-03-02T23:38:52.897Z,13.95
2023-03-02T23:41:23.486Z,12.00
2023-03-02T23:43:52.582Z,13.48
2023-03-02T23:46:21.957Z,12.05
2023-03-02T23:48:51.778Z,12.15
2023-03-02T23:51:20.851Z,13.48
2023-03-02T23:54:15.236Z,12.50
2023-03-02T23:56:45.859Z,14.02
2023-03-02T23:59:15.053Z,15.27
